Time;durP1;ratioP1;P1;durP2;ratioP2;P2;SDS_P1;SDS_P2;PMS_P1;PMS_P2;Temp;Humidity;BMP_temperature;BMP_pressure;BME280_temperature;BME280_humidity;BME280_pressure;Samples;Min_cycle;Max_cycle;Signal;HPM_P1;HPM_P2
2022/09/25 00:01:00;;;;;;;0.00;0.00;;;12.90;99.90;;;;;;4962122;28;20205;-76
2022/09/25 00:03:29;;;;;;;0.10;0.10;;;12.90;99.90;;;;;;4968976;28;20574;-77
2022/09/25 00:06:01;;;;;;;0.10;0.10;;;12.90;99.90;;;;;;4970585;28;20635;-77
2022/09/25 00:08:29;;;;;;;0.10;0.10;;;12.80;99.90;;;;;;4963001;28;20201;-77
2022/09/25 00:10:57;;;;;;;0.10;0.10;;;12.80;99.90;;;;;;4982746;28;20541;-78
2022/09/25 00:13:26;;;;;;;0.00;0.00;;;12.80;99.90;;;;;;4960559;28;20201;-77
2022/09/25 00:15:56;;;;;;;0.10;0.10;;;12.80;99.90;;;;;;4971032;28;20712;-77
2022/09/25 00:21:14;;;;;;;0.10;0.10;;;12.80;99.90;;;;;;4963978;28;20264;-77
2022/09/25 00:23:43;;;;;;;0.10;0.10;;;12.80;99.90;;;;;;4974350;28;20256;-77
2022/09/25 00:26:13;;;;;;;0.00;0.00;;;12.80;99.90;;;;;;4963974;28;20589;-77
2022/09/25 00:28:41;;;;;;;0.10;0.10;;;12.80;99.90;;;;;;4969074;28;20205;-77
2022/09/25 00:31:14;;;;;;;0.10;0.10;;;12.70;99.90;;;;;;4972370;28;20209;-77
2022/09/25 00:33:42;;;;;;;0.00;0.00;;;12.80;99.90;;;;;;4970052;28;20430;-77
2022/09/25 00:36:10;;;;;;;0.00;0.00;;;12.70;99.90;;;;;;4964012;28;20257;-77
2022/09/25 00:38:38;;;;;;;0.10;0.10;;;12.80;99.90;;;;;;4953990;29;20709;-76
2022/09/25 00:41:07;;;;;;;0.05;0.05;;;12.90;99.90;;;;;;4965709;28;20259;-76
2022/09/25 00:43:38;;;;;;;0.10;0.10;;;12.80;99.90;;;;;;4973589;28;20205;-76
2022/09/25 00:46:11;;;;;;;0.10;0.10;;;12.70;99.90;;;;;;4964687;28;20245;-77
2022/09/25 00:48:47;;;;;;;0.10;0.10;;;12.70;99.90;;;;;;4937033;29;20212;-77
2022/09/25 00:51:17;;;;;;;0.10;0.10;;;12.60;99.90;;;;;;4965607;28;20200;-77
2022/09/25 00:53:45;;;;;;;0.00;0.00;;;12.70;99.90;;;;;;4955073;29;20608;-77
2022/09/25 00:56:14;;;;;;;0.10;0.10;;;12.70;99.90;;;;;;4960822;28;20645;-77
2022/09/25 00:58:42;;;;;;;0.10;0.10;;;12.70;99.90;;;;;;4972657;28;20642;-78
2022/09/25 01:01:12;;;;;;;0.05;0.05;;;12.60;99.90;;;;;;4968939;28;20609;-76
2022/09/25 01:03:45;;;;;;;0.00;0.00;;;12.60;99.90;;;;;;4955073;29;20194;-78
2022/09/25 01:06:14;;;;;;;0.00;0.00;;;12.60;99.90;;;;;;4964075;28;20255;-78
2022/09/25 01:08:45;;;;;;;0.10;0.10;;;12.60;99.90;;;;;;4973671;28;20726;-77
2022/09/25 01:11:12;;;;;;;0.03;0.03;;;12.60;99.90;;;;;;4967571;28;20205;-77
2022/09/25 01:13:41;;;;;;;0.00;0.00;;;12.70;99.90;;;;;;4959841;28;20197;-77
2022/09/25 01:16:17;;;;;;;0.10;0.10;;;12.60;99.90;;;;;;4970303;28;20221;-76
2022/09/25 01:18:58;;;;;;;0.00;0.00;;;12.50;99.90;;;;;;4972095;28;20234;-76
2022/09/25 01:21:35;;;;;;;0.05;0.05;;;12.60;99.90;;;;;;4968443;28;20538;-76
2022/09/25 01:24:37;;;;;;;0.10;0.10;;;12.60;99.90;;;;;;4974617;28;20228;-76
2022/09/25 01:27:30;;;;;;;0.10;0.10;;;12.60;99.90;;;;;;4959263;28;20233;-78
2022/09/25 01:30:05;;;;;;;0.00;0.00;;;12.50;99.90;;;;;;4958451;28;20216;-77
2022/09/25 01:32:41;;;;;;;0.10;0.10;;;12.40;99.90;;;;;;4968004;28;20251;-76
2022/09/25 01:35:15;;;;;;;0.10;0.10;;;12.30;99.90;;;;;;4968446;28;20224;-77
2022/09/25 01:37:50;;;;;;;0.10;0.10;;;12.20;99.90;;;;;;4985362;28;20248;-77
2022/09/25 01:40:25;;;;;;;0.10;0.10;;;12.20;99.90;;;;;;4971735;28;20260;-77
2022/09/25 01:42:59;;;;;;;0.10;0.10;;;12.30;99.90;;;;;;4972271;28;20211;-77
2022/09/25 01:45:34;;;;;;;0.10;0.10;;;12.20;99.90;;;;;;4959446;28;20730;-77
2022/09/25 01:48:06;;;;;;;0.10;0.10;;;12.30;99.90;;;;;;4963043;28;20291;-77
2022/09/25 01:50:36;;;;;;;0.10;0.10;;;12.30;99.90;;;;;;4963948;28;20676;-78
2022/09/25 01:53:10;;;;;;;0.10;0.10;;;12.30;99.90;;;;;;4972924;28;20770;-78
2022/09/25 01:55:43;;;;;;;0.00;0.00;;;12.30;99.90;;;;;;4970424;28;20295;-77
2022/09/25 01:58:14;;;;;;;0.10;0.10;;;12.40;99.90;;;;;;4971976;28;20218;-77
2022/09/25 02:00:49;;;;;;;0.10;0.10;;;12.30;99.90;;;;;;4970984;28;20201;-77
2022/09/25 02:03:21;;;;;;;0.10;0.10;;;12.30;99.90;;;;;;4972798;28;20275;-77
2022/09/25 02:05:52;;;;;;;0.10;0.10;;;12.30;99.90;;;;;;5006483;23;20236;-76
2022/09/25 02:08:23;;;;;;;0.10;0.10;;;12.20;99.90;;;;;;4976534;28;20233;-76
2022/09/25 02:10:55;;;;;;;0.10;0.10;;;12.20;99.90;;;;;;4988203;28;20193;-75
2022/09/25 02:13:27;;;;;;;0.10;0.10;;;12.20;99.90;;;;;;4993794;28;20204;-76
2022/09/25 02:15:59;;;;;;;0.10;0.10;;;12.20;99.90;;;;;;4994559;28;20212;-77
2022/09/25 02:21:19;;;;;;;0.10;0.10;;;12.20;99.90;;;;;;5000337;28;20278;-77
2022/09/25 02:23:52;;;;;;;0.10;0.10;;;12.20;99.90;;;;;;5000403;28;20212;-78
2022/09/25 02:26:26;;;;;;;0.00;0.00;;;12.20;99.90;;;;;;4989850;28;20225;-76
2022/09/25 02:28:55;;;;;;;0.08;0.08;;;12.30;99.90;;;;;;4999164;28;20663;-78
2022/09/25 02:31:29;;;;;;;0.10;0.10;;;12.40;99.90;;;;;;4993516;28;20216;-77
2022/09/25 02:33:58;;;;;;;0.00;0.00;;;12.30;99.90;;;;;;4975015;28;20197;-77
2022/09/25 02:36:26;;;;;;;0.10;0.10;;;12.30;99.90;;;;;;4983876;28;20251;-77
2022/09/25 02:38:56;;;;;;;0.10;0.10;;;12.20;99.90;;;;;;5008064;28;20282;-77
2022/09/25 02:41:38;;;;;;;0.10;0.10;;;12.20;99.90;;;;;;4985518;28;20196;-77
2022/09/25 02:44:16;;;;;;;0.00;0.00;;;12.20;99.90;;;;;;4976630;28;20229;-77
2022/09/25 02:46:53;;;;;;;0.10;0.10;;;12.10;99.90;;;;;;4988399;28;20228;-77
2022/09/25 02:49:27;;;;;;;0.10;0.10;;;12.10;99.90;;;;;;4988919;28;20598;-77
2022/09/25 02:52:03;;;;;;;0.10;0.10;;;12.00;99.90;;;;;;4986560;28;20193;-77
2022/09/25 02:54:37;;;;;;;0.10;0.10;;;12.10;99.90;;;;;;4976521;28;20255;-77
2022/09/25 02:57:11;;;;;;;0.10;0.10;;;12.10;99.90;;;;;;4982704;28;20275;-77
2022/09/25 02:59:47;;;;;;;0.10;0.10;;;12.10;99.90;;;;;;4995288;28;20738;-77
2022/09/25 03:02:17;;;;;;;0.10;0.10;;;12.10;99.90;;;;;;4987872;28;20200;-77
2022/09/25 03:04:47;;;;;;;0.10;0.10;;;12.10;99.90;;;;;;4984995;28;20205;-77
2022/09/25 03:07:16;;;;;;;0.10;0.10;;;11.90;99.90;;;;;;4993075;28;20201;-77
2022/09/25 03:09:45;;;;;;;0.10;0.10;;;11.70;99.90;;;;;;4993614;28;20200;-77
2022/09/25 03:12:14;;;;;;;0.10;0.10;;;11.70;99.90;;;;;;4990656;28;20204;-77
2022/09/25 03:14:42;;;;;;;0.00;0.00;;;11.80;99.90;;;;;;4992417;28;20197;-77
2022/09/25 03:17:11;;;;;;;0.10;0.10;;;11.80;99.90;;;;;;4981686;28;20221;-77
2022/09/25 03:19:40;;;;;;;0.10;0.10;;;11.70;99.90;;;;;;4994369;28;20256;-76
2022/09/25 03:22:08;;;;;;;0.08;0.08;;;11.70;99.90;;;;;;4984898;28;20672;-76
2022/09/25 03:24:37;;;;;;;0.10;0.10;;;11.60;99.90;;;;;;4993920;28;20205;-76
2022/09/25 03:27:05;;;;;;;0.00;0.00;;;11.60;99.90;;;;;;4991282;28;20277;-75
2022/09/25 03:29:32;;;;;;;0.10;0.10;;;11.60;99.90;;;;;;4975549;28;20205;-77
2022/09/25 03:32:00;;;;;;;0.10;0.10;;;11.60;99.90;;;;;;4988095;28;20201;-77
2022/09/25 03:34:28;;;;;;;0.10;0.10;;;11.60;99.90;;;;;;4993305;28;20690;-77
2022/09/25 03:36:58;;;;;;;0.10;0.10;;;11.60;99.90;;;;;;4985371;28;20279;-76
2022/09/25 03:39:25;;;;;;;0.10;0.10;;;11.70;99.90;;;;;;4987489;28;20255;-77
2022/09/25 03:41:53;;;;;;;0.08;0.08;;;11.70;99.90;;;;;;4985772;28;20200;-77
2022/09/25 03:44:21;;;;;;;0.10;0.10;;;11.70;99.90;;;;;;4990610;28;20254;-77
2022/09/25 03:46:49;;;;;;;0.10;0.10;;;11.70;99.90;;;;;;4991519;28;20221;-78
2022/09/25 03:49:16;;;;;;;0.10;0.10;;;11.70;99.90;;;;;;4994389;28;20192;-77
2022/09/25 03:51:44;;;;;;;0.00;0.00;;;11.70;99.90;;;;;;4989192;28;20207;-77
2022/09/25 03:54:13;;;;;;;0.03;0.03;;;11.70;99.90;;;;;;4988068;28;20250;-76
2022/09/25 03:56:41;;;;;;;0.10;0.10;;;11.70;99.90;;;;;;4983131;28;20224;-76
2022/09/25 03:59:09;;;;;;;0.10;0.10;;;11.60;99.90;;;;;;4998647;28;20247;-77
2022/09/25 04:01:37;;;;;;;0.10;0.10;;;11.80;99.90;;;;;;4991873;28;20251;-77
2022/09/25 04:04:05;;;;;;;0.10;0.10;;;11.90;99.90;;;;;;4975566;28;20211;-77
2022/09/25 04:06:33;;;;;;;0.10;0.10;;;11.90;99.90;;;;;;4979340;28;20233;-75
2022/09/25 04:09:01;;;;;;;0.10;0.10;;;11.80;99.90;;;;;;4987103;28;20554;-76
2022/09/25 04:11:30;;;;;;;0.10;0.10;;;11.80;99.90;;;;;;4988634;28;20213;-77
2022/09/25 04:13:58;;;;;;;0.10;0.10;;;11.80;99.90;;;;;;4978702;28;20201;-76
2022/09/25 04:16:29;;;;;;;0.10;0.10;;;11.70;99.90;;;;;;4988207;28;20224;-75
2022/09/25 04:18:57;;;;;;;0.10;0.10;;;11.70;99.90;;;;;;4984640;28;20220;-75
2022/09/25 04:21:25;;;;;;;0.10;0.10;;;11.70;99.90;;;;;;4979278;28;20678;-75
2022/09/25 04:26:39;;;;;;;0.10;0.10;;;11.60;99.90;;;;;;4991676;28;20256;-76
2022/09/25 04:29:07;;;;;;;0.00;0.00;;;11.70;99.90;;;;;;4990208;28;20204;-76
2022/09/25 04:31:35;;;;;;;0.10;0.10;;;11.70;99.90;;;;;;4993083;28;20539;-76
2022/09/25 04:34:02;;;;;;;0.10;0.10;;;11.80;99.90;;;;;;4977469;28;20267;-76
2022/09/25 04:36:30;;;;;;;0.10;0.10;;;11.80;99.90;;;;;;4971735;28;20789;-76
2022/09/25 04:38:58;;;;;;;0.10;0.10;;;11.70;99.90;;;;;;4988673;28;20211;-76
2022/09/25 04:41:26;;;;;;;0.10;0.10;;;11.80;99.90;;;;;;4994714;28;20204;-75
2022/09/25 04:43:55;;;;;;;0.10;0.10;;;11.80;99.90;;;;;;4978677;28;20251;-75
2022/09/25 04:46:23;;;;;;;0.10;0.10;;;11.70;99.90;;;;;;4987186;28;20711;-75
2022/09/25 04:48:51;;;;;;;0.10;0.10;;;11.70;99.90;;;;;;4991087;28;20204;-74
2022/09/25 04:51:19;;;;;;;0.10;0.10;;;11.60;99.90;;;;;;4981614;28;20208;-75
2022/09/25 04:53:47;;;;;;;0.00;0.00;;;11.60;99.90;;;;;;4979191;28;20292;-74
2022/09/25 04:56:15;;;;;;;0.10;0.10;;;11.50;99.90;;;;;;4979129;28;20627;-75
2022/09/25 04:58:45;;;;;;;0.00;0.00;;;11.50;99.90;;;;;;5013537;28;20199;-75
2022/09/25 05:01:16;;;;;;;0.10;0.10;;;11.50;99.90;;;;;;5011926;28;20212;-75
2022/09/25 05:03:43;;;;;;;0.00;0.00;;;11.50;99.90;;;;;;5023927;28;20204;-76
2022/09/25 05:06:11;;;;;;;0.03;0.03;;;11.50;99.90;;;;;;5001856;28;20261;-75
2022/09/25 05:08:39;;;;;;;0.10;0.10;;;11.50;99.90;;;;;;4991835;28;20204;-76
2022/09/25 05:11:07;;;;;;;0.08;0.08;;;11.50;99.90;;;;;;4978208;28;20217;-76
2022/09/25 05:13:35;;;;;;;0.10;0.10;;;11.60;99.90;;;;;;4999294;28;20227;-77
2022/09/25 05:16:03;;;;;;;0.10;0.10;;;11.60;99.90;;;;;;4994432;28;20228;-76
2022/09/25 05:18:35;;;;;;;0.10;0.10;;;11.60;99.90;;;;;;4996036;28;20212;-77
2022/09/25 05:21:05;;;;;;;0.10;0.10;;;11.60;99.90;;;;;;4985790;28;20290;-76
2022/09/25 05:23:33;;;;;;;0.10;0.10;;;11.60;99.90;;;;;;4997462;28;20232;-76
2022/09/25 05:26:01;;;;;;;0.08;0.08;;;11.60;99.90;;;;;;4987977;28;20221;-76
2022/09/25 05:28:34;;;;;;;0.10;0.10;;;11.60;99.90;;;;;;5005164;28;20283;-78
2022/09/25 05:31:03;;;;;;;0.10;0.10;;;11.60;99.90;;;;;;5003332;28;20215;-79
2022/09/25 05:33:34;;;;;;;0.10;0.10;;;11.60;99.90;;;;;;4992192;28;20199;-77
2022/09/25 05:36:02;;;;;;;0.10;0.10;;;11.70;99.90;;;;;;4987302;28;20228;-77
2022/09/25 05:38:32;;;;;;;0.10;0.10;;;11.70;99.90;;;;;;4986852;28;20197;-78
2022/09/25 05:41:03;;;;;;;0.10;0.10;;;11.60;99.90;;;;;;4989409;28;20212;-76
2022/09/25 05:43:32;;;;;;;0.10;0.10;;;11.60;99.90;;;;;;4998563;28;20679;-77
2022/09/25 05:46:00;;;;;;;0.10;0.10;;;11.50;99.90;;;;;;4992940;28;20267;-77
2022/09/25 05:48:28;;;;;;;0.10;0.10;;;11.60;99.90;;;;;;4985737;28;20214;-77
2022/09/25 05:50:58;;;;;;;0.10;0.10;;;11.70;99.90;;;;;;4995178;28;20203;-78
2022/09/25 05:53:26;;;;;;;0.10;0.10;;;11.60;99.90;;;;;;5001218;28;20204;-78
2022/09/25 05:55:56;;;;;;;0.10;0.10;;;11.60;99.90;;;;;;4978502;28;20224;-77
2022/09/25 05:58:25;;;;;;;0.10;0.10;;;11.60;99.90;;;;;;4983817;28;20204;-76
2022/09/25 06:00:53;;;;;;;0.10;0.10;;;11.60;99.90;;;;;;4990360;28;20228;-76
2022/09/25 06:03:22;;;;;;;0.10;0.10;;;11.70;99.90;;;;;;4978608;28;20200;-75
2022/09/25 06:05:50;;;;;;;0.10;0.10;;;11.70;99.90;;;;;;4981317;28;20231;-76
2022/09/25 06:08:19;;;;;;;0.10;0.10;;;11.70;99.90;;;;;;4981957;28;20616;-77
2022/09/25 06:10:54;;;;;;;0.00;0.00;;;11.80;99.90;;;;;;4983711;28;20197;-76
2022/09/25 06:13:24;;;;;;;0.10;0.10;;;11.70;99.90;;;;;;4995308;28;20199;-76
2022/09/25 06:15:53;;;;;;;0.10;0.10;;;11.80;99.90;;;;;;4993581;28;20711;-76
2022/09/25 06:18:23;;;;;;;0.10;0.10;;;11.80;99.90;;;;;;4993422;28;20635;-76
2022/09/25 06:20:52;;;;;;;0.10;0.10;;;11.80;99.90;;;;;;4968486;28;20291;-76
2022/09/25 06:23:21;;;;;;;0.10;0.10;;;11.80;99.90;;;;;;4990920;28;20737;-76
2022/09/25 06:25:50;;;;;;;0.00;0.00;;;11.90;99.90;;;;;;4991172;28;20220;-76
2022/09/25 06:28:20;;;;;;;0.00;0.00;;;11.90;99.90;;;;;;4985438;28;20254;-76
2022/09/25 06:30:48;;;;;;;0.00;0.00;;;12.00;99.90;;;;;;4984069;28;20212;-77
2022/09/25 06:33:16;;;;;;;0.10;0.10;;;12.00;99.90;;;;;;4985715;28;20604;-77
2022/09/25 06:35:45;;;;;;;0.10;0.10;;;12.10;99.90;;;;;;4986185;28;20280;-76
2022/09/25 06:38:15;;;;;;;0.05;0.05;;;12.00;99.90;;;;;;4992918;28;20241;-77
2022/09/25 06:40:45;;;;;;;0.00;0.00;;;12.10;99.90;;;;;;4993862;28;20303;-77
2022/09/25 06:43:15;;;;;;;0.10;0.10;;;12.10;99.90;;;;;;4989104;28;20209;-77
2022/09/25 06:45:46;;;;;;;0.00;0.00;;;12.10;99.90;;;;;;4980106;28;20217;-77
2022/09/25 06:48:15;;;;;;;0.10;0.10;;;12.20;99.90;;;;;;4994780;28;20247;-76
2022/09/25 06:50:45;;;;;;;0.10;0.10;;;12.10;99.90;;;;;;4978694;28;20189;-75
2022/09/25 06:53:15;;;;;;;0.10;0.10;;;12.10;99.90;;;;;;4986785;28;20271;-77
2022/09/25 06:55:47;;;;;;;0.10;0.10;;;12.20;99.90;;;;;;4985263;28;20225;-76
2022/09/25 06:58:31;;;;;;;0.10;0.10;;;12.30;99.90;;;;;;4981592;28;20201;-76
2022/09/25 07:00:59;;;;;;;0.10;0.10;;;12.30;99.90;;;;;;4985841;28;20224;-77
2022/09/25 07:03:44;;;;;;;0.00;0.00;;;12.30;99.90;;;;;;4985334;28;20200;-77
2022/09/25 07:06:14;;;;;;;0.00;0.00;;;12.40;99.90;;;;;;4991497;28;20232;-76
2022/09/25 07:08:43;;;;;;;0.00;0.00;;;12.50;99.90;;;;;;4991796;28;20228;-77
2022/09/25 07:11:15;;;;;;;0.00;0.00;;;12.50;99.90;;;;;;4983826;28;20259;-77
2022/09/25 07:13:43;;;;;;;0.10;0.10;;;12.50;99.90;;;;;;4986413;28;20251;-77
2022/09/25 07:16:14;;;;;;;0.10;0.10;;;12.50;99.90;;;;;;4987670;28;20282;-77
2022/09/25 07:18:43;;;;;;;0.00;0.00;;;12.50;99.90;;;;;;4978925;28;20543;-77
2022/09/25 07:21:13;;;;;;;0.10;0.10;;;12.60;99.90;;;;;;4966187;28;20228;-77
2022/09/25 07:23:41;;;;;;;0.00;0.00;;;12.60;99.90;;;;;;4993850;28;20200;-77
2022/09/25 07:26:10;;;;;;;0.03;0.03;;;12.60;99.90;;;;;;4990705;28;20259;-77
2022/09/25 07:28:41;;;;;;;0.00;0.00;;;12.70;99.90;;;;;;4983397;28;20259;-77
2022/09/25 07:31:14;;;;;;;0.10;0.10;;;12.80;99.90;;;;;;4996726;28;20208;-77
2022/09/25 07:33:42;;;;;;;0.10;0.10;;;12.80;99.90;;;;;;4989998;28;20252;-77
2022/09/25 07:36:10;;;;;;;0.00;0.00;;;12.90;99.90;;;;;;4999766;28;20220;-77
2022/09/25 07:38:39;;;;;;;0.08;0.08;;;12.90;99.90;;;;;;4999264;28;20201;-77
2022/09/25 07:41:09;;;;;;;0.10;0.10;;;12.90;99.90;;;;;;4991482;28;20267;-77
2022/09/25 07:43:37;;;;;;;0.10;0.10;;;13.00;99.90;;;;;;4987143;28;20245;-77
2022/09/25 07:46:07;;;;;;;0.00;0.00;;;13.10;99.90;;;;;;4983154;28;20232;-78
2022/09/25 07:48:35;;;;;;;0.00;0.00;;;13.20;99.90;;;;;;4986435;28;20556;-77
2022/09/25 07:51:03;;;;;;;0.10;0.10;;;13.20;99.90;;;;;;4985881;28;20208;-77
2022/09/25 07:53:31;;;;;;;0.00;0.00;;;13.20;99.90;;;;;;4990756;28;20229;-78
2022/09/25 07:56:00;;;;;;;0.00;0.00;;;13.30;99.90;;;;;;4987182;28;20240;-78
2022/09/25 07:58:34;;;;;;;0.00;0.00;;;13.40;99.90;;;;;;4995879;28;20199;-78
2022/09/25 08:01:05;;;;;;;0.10;0.10;;;13.40;99.90;;;;;;5002450;28;20231;-75
2022/09/25 08:03:34;;;;;;;0.10;0.10;;;13.40;99.90;;;;;;5015270;28;20216;-74
2022/09/25 08:06:04;;;;;;;0.00;0.00;;;13.30;99.90;;;;;;5033259;23;20229;-77
2022/09/25 08:08:34;;;;;;;0.00;0.00;;;13.40;99.90;;;;;;5001039;28;20200;-77
2022/09/25 08:11:05;;;;;;;0.10;0.10;;;13.50;99.90;;;;;;4999386;28;20227;-77
2022/09/25 08:13:34;;;;;;;0.00;0.00;;;13.60;99.90;;;;;;5007127;28;20239;-77
2022/09/25 08:16:02;;;;;;;0.03;0.03;;;13.60;99.90;;;;;;5009052;28;20221;-77
2022/09/25 08:18:31;;;;;;;0.00;0.00;;;13.70;99.90;;;;;;4997829;28;20208;-77
2022/09/25 08:21:02;;;;;;;0.00;0.00;;;13.70;99.90;;;;;;4993645;28;20310;-77
2022/09/25 08:23:31;;;;;;;0.00;0.00;;;13.70;99.90;;;;;;4997335;28;20193;-77
2022/09/25 08:25:59;;;;;;;0.10;0.10;;;13.80;99.90;;;;;;5005897;28;20282;-77
2022/09/25 08:28:27;;;;;;;0.00;0.00;;;13.80;99.90;;;;;;4993994;28;20204;-77
2022/09/25 08:30:57;;;;;;;0.10;0.10;;;13.80;99.90;;;;;;5001103;28;20200;-77
2022/09/25 08:33:25;;;;;;;0.08;0.08;;;13.90;99.90;;;;;;4993825;28;20192;-77
2022/09/25 08:35:58;;;;;;;0.10;0.10;;;14.00;99.90;;;;;;4997892;28;20220;-77
2022/09/25 08:38:28;;;;;;;0.10;0.10;;;13.90;99.90;;;;;;4993762;28;20208;-77
2022/09/25 08:40:59;;;;;;;0.00;0.00;;;14.00;99.90;;;;;;4989810;28;20608;-77
2022/09/25 08:43:28;;;;;;;0.00;0.00;;;14.00;99.90;;;;;;4992820;28;20196;-77
2022/09/25 08:49:01;;;;;;;0.10;0.10;;;14.10;99.90;;;;;;4991680;28;20204;-77
2022/09/25 08:51:32;;;;;;;0.00;0.00;;;14.20;99.90;;;;;;4993103;28;20192;-76
2022/09/25 08:54:02;;;;;;;0.00;0.00;;;14.30;99.90;;;;;;4997754;28;20196;-77
2022/09/25 08:56:34;;;;;;;0.10;0.10;;;14.30;99.90;;;;;;5003979;28;20592;-77
2022/09/25 08:59:08;;;;;;;0.00;0.00;;;14.50;99.90;;;;;;4994707;28;20613;-77
2022/09/25 09:01:44;;;;;;;0.00;0.00;;;14.60;99.90;;;;;;4992702;28;20514;-76
2022/09/25 09:04:18;;;;;;;0.00;0.00;;;14.80;99.90;;;;;;4992520;28;20196;-77
2022/09/25 09:06:51;;;;;;;0.00;0.00;;;14.80;99.90;;;;;;4992799;28;20273;-77
2022/09/25 09:09:44;;;;;;;0.00;0.00;;;14.80;99.90;;;;;;4992167;28;20295;-77
2022/09/25 09:12:14;;;;;;;0.00;0.00;;;14.90;99.90;;;;;;4992176;28;20207;-77
2022/09/25 09:14:46;;;;;;;0.00;0.00;;;15.00;99.90;;;;;;4994870;28;20596;-77
2022/09/25 09:17:18;;;;;;;0.00;0.00;;;15.20;99.90;;;;;;4996549;28;20216;-76
2022/09/25 09:19:48;;;;;;;0.00;0.00;;;15.30;99.90;;;;;;4991120;28;20200;-76
2022/09/25 09:22:22;;;;;;;0.00;0.00;;;15.30;99.90;;;;;;4993273;28;20610;-77
2022/09/25 09:25:02;;;;;;;0.00;0.00;;;15.40;99.90;;;;;;4989943;28;20246;-76
2022/09/25 09:27:50;;;;;;;0.00;0.00;;;15.40;99.90;;;;;;4993386;28;20329;-77
2022/09/25 09:30:20;;;;;;;0.00;0.00;;;15.40;99.90;;;;;;4981705;28;20200;-77
2022/09/25 09:33:06;;;;;;;0.00;0.00;;;15.40;99.90;;;;;;4994356;28;20200;-76
2022/09/25 09:35:47;;;;;;;0.10;0.10;;;15.40;99.90;;;;;;4999180;28;20223;-76
2022/09/25 09:38:27;;;;;;;0.00;0.00;;;15.40;99.90;;;;;;4987702;28;20215;-76
2022/09/25 09:41:22;;;;;;;0.00;0.00;;;15.50;99.90;;;;;;4994616;28;20201;-76
2022/09/25 09:44:05;;;;;;;0.00;0.00;;;15.70;99.90;;;;;;4998363;28;20255;-76
2022/09/25 09:46:43;;;;;;;0.00;0.00;;;15.60;99.90;;;;;;5002462;28;20718;-76
2022/09/25 09:49:17;;;;;;;0.00;0.00;;;15.50;99.90;;;;;;4989915;28;20551;-76
2022/09/25 09:51:53;;;;;;;0.00;0.00;;;15.60;99.90;;;;;;5004231;28;20328;-76
2022/09/25 09:54:26;;;;;;;0.00;0.00;;;15.80;99.90;;;;;;4987959;28;20196;-76
2022/09/25 09:56:57;;;;;;;0.00;0.00;;;15.80;99.90;;;;;;4994837;28;20232;-76
2022/09/25 09:59:30;;;;;;;0.00;0.00;;;15.90;99.90;;;;;;4989336;28;20209;-76
2022/09/25 10:02:02;;;;;;;0.00;0.00;;;16.00;99.90;;;;;;4997319;28;20216;-76
2022/09/25 10:04:36;;;;;;;0.00;0.00;;;16.10;99.90;;;;;;4992745;28;20283;-76
2022/09/25 10:07:07;;;;;;;0.00;0.00;;;16.20;99.90;;;;;;4992050;28;20271;-76
2022/09/25 10:09:36;;;;;;;0.00;0.00;;;16.30;99.90;;;;;;4991769;28;20259;-76
2022/09/25 10:12:12;;;;;;;0.00;0.00;;;16.20;99.90;;;;;;4992488;28;20188;-76
2022/09/25 10:14:44;;;;;;;0.00;0.00;;;16.20;99.90;;;;;;4992317;28;20211;-76
2022/09/25 10:17:12;;;;;;;0.10;0.10;;;16.20;99.90;;;;;;4991649;28;20223;-76
2022/09/25 10:19:48;;;;;;;0.00;0.00;;;16.20;99.90;;;;;;4992165;28;20589;-76
2022/09/25 10:22:19;;;;;;;0.00;0.00;;;16.30;99.90;;;;;;4991853;28;20263;-76
2022/09/25 10:24:54;;;;;;;0.00;0.00;;;16.30;99.90;;;;;;4992125;28;20614;-76
2022/09/25 10:27:28;;;;;;;0.05;0.05;;;16.30;99.90;;;;;;4991305;28;20582;-75
2022/09/25 10:30:13;;;;;;;0.00;0.00;;;16.30;99.90;;;;;;4991747;28;20235;-76
2022/09/25 10:32:44;;;;;;;0.00;0.00;;;16.40;99.90;;;;;;4988127;28;20778;-76
2022/09/25 10:35:17;;;;;;;0.00;0.00;;;16.40;99.90;;;;;;4972258;28;20197;-76
2022/09/25 10:37:50;;;;;;;0.00;0.00;;;16.40;99.90;;;;;;4971068;28;20624;-76
2022/09/25 10:40:27;;;;;;;0.00;0.00;;;16.50;99.90;;;;;;4972518;28;20205;-76
2022/09/25 10:43:06;;;;;;;0.00;0.00;;;16.60;99.90;;;;;;4984749;28;20235;-76
2022/09/25 10:45:37;;;;;;;0.00;0.00;;;16.60;99.90;;;;;;4992002;28;20287;-76
2022/09/25 10:51:17;;;;;;;0.00;0.00;;;16.70;99.90;;;;;;4972785;28;20247;-76
2022/09/25 10:53:46;;;;;;;0.00;0.00;;;16.90;99.90;;;;;;4990816;28;20207;-76
2022/09/25 10:56:17;;;;;;;0.00;0.00;;;16.90;99.90;;;;;;4992268;28;20291;-76
2022/09/25 10:58:51;;;;;;;0.00;0.00;;;17.00;99.90;;;;;;4993020;28;20200;-76
2022/09/25 11:01:19;;;;;;;0.00;0.00;;;17.10;99.90;;;;;;4995332;28;20197;-75
2022/09/25 11:03:52;;;;;;;0.10;0.10;;;17.10;99.90;;;;;;4987839;28;20612;-76
2022/09/25 11:06:23;;;;;;;0.03;0.03;;;17.20;99.90;;;;;;5001682;28;20232;-75
2022/09/25 11:09:02;;;;;;;0.00;0.00;;;17.40;99.90;;;;;;5003823;28;20204;-76
2022/09/25 11:11:31;;;;;;;0.00;0.00;;;17.60;99.90;;;;;;5003847;28;20203;-76
2022/09/25 11:14:03;;;;;;;0.00;0.00;;;17.60;99.90;;;;;;5001438;28;20196;-76
2022/09/25 11:16:46;;;;;;;0.00;0.00;;;17.70;99.90;;;;;;4999250;28;20235;-76
2022/09/25 11:19:18;;;;;;;0.00;0.00;;;17.80;99.90;;;;;;4995205;28;20263;-76
2022/09/25 11:21:54;;;;;;;0.00;0.00;;;17.90;99.90;;;;;;4995274;28;20208;-76
2022/09/25 11:24:25;;;;;;;0.00;0.00;;;18.10;99.90;;;;;;4994735;28;20219;-76
2022/09/25 11:27:01;;;;;;;0.00;0.00;;;18.20;99.90;;;;;;4994443;28;20248;-77
2022/09/25 11:29:41;;;;;;;0.00;0.00;;;18.30;99.90;;;;;;4983910;28;20263;-76
2022/09/25 11:32:19;;;;;;;0.00;0.00;;;18.30;99.90;;;;;;4994943;28;20279;-76
2022/09/25 11:35:00;;;;;;;0.00;0.00;;;18.30;99.90;;;;;;4976219;28;20637;-76
2022/09/25 11:37:35;;;;;;;0.00;0.00;;;18.20;99.90;;;;;;4982840;28;20267;-77
2022/09/25 11:43:08;;;;;;;0.00;0.00;;;18.10;99.90;;;;;;4994320;28;20691;-76
2022/09/25 11:45:43;;;;;;;0.00;0.00;;;18.20;99.90;;;;;;4994867;28;20623;-77
2022/09/25 11:48:18;;;;;;;0.00;0.00;;;18.30;99.90;;;;;;4993375;28;20196;-79
2022/09/25 11:50:54;;;;;;;0.03;0.03;;;18.40;99.90;;;;;;4975968;28;20239;-79
2022/09/25 11:53:32;;;;;;;0.00;0.00;;;18.60;99.90;;;;;;4981621;28;20219;-78
2022/09/25 11:56:10;;;;;;;0.00;0.00;;;18.70;99.90;;;;;;4994950;28;20633;-77
2022/09/25 11:58:49;;;;;;;0.00;0.00;;;18.80;99.90;;;;;;4995338;28;20235;-79
2022/09/25 12:01:29;;;;;;;0.00;0.00;;;18.80;99.90;;;;;;4995355;28;20263;-77
2022/09/25 12:04:31;;;;;;;0.00;0.00;;;18.80;99.90;;;;;;4994853;28;20220;-79
2022/09/25 12:07:22;;;;;;;0.00;0.00;;;18.90;99.90;;;;;;4977603;28;20638;-79
2022/09/25 12:10:03;;;;;;;0.00;0.00;;;19.10;99.90;;;;;;4994810;28;20227;-79
2022/09/25 12:12:40;;;;;;;0.00;0.00;;;19.20;99.90;;;;;;4994735;28;20201;-79
2022/09/25 12:15:17;;;;;;;0.00;0.00;;;19.10;99.90;;;;;;4994140;28;20683;-79
2022/09/25 12:17:56;;;;;;;0.00;0.00;;;19.10;99.90;;;;;;4995593;28;20188;-80
2022/09/25 12:20:32;;;;;;;0.00;0.00;;;19.20;99.90;;;;;;4994498;28;20663;-80
2022/09/25 12:23:12;;;;;;;0.00;0.00;;;19.10;99.90;;;;;;5000857;28;20212;-79
2022/09/25 12:25:52;;;;;;;0.00;0.00;;;19.10;99.90;;;;;;4994408;28;20726;-79
2022/09/25 12:28:30;;;;;;;0.00;0.00;;;18.90;99.90;;;;;;4994231;28;20612;-79
2022/09/25 12:31:06;;;;;;;0.00;0.00;;;18.80;99.90;;;;;;4985385;28;20233;-79
2022/09/25 12:33:42;;;;;;;0.00;0.00;;;19.00;99.90;;;;;;4975082;28;20204;-80
2022/09/25 12:36:15;;;;;;;0.00;0.00;;;19.10;99.90;;;;;;4975032;28;20216;-80
2022/09/25 12:38:49;;;;;;;0.00;0.00;;;19.30;99.90;;;;;;4991704;28;20266;-79
2022/09/25 12:41:25;;;;;;;0.00;0.00;;;19.40;99.90;;;;;;4995008;28;20247;-80
2022/09/25 12:44:00;;;;;;;0.00;0.00;;;19.50;99.90;;;;;;4994337;28;20928;-79
2022/09/25 12:46:34;;;;;;;0.00;0.00;;;19.60;99.90;;;;;;4994290;28;20832;-79
2022/09/25 12:49:10;;;;;;;0.00;0.00;;;19.90;99.90;;;;;;4994217;28;20211;-80
2022/09/25 12:51:40;;;;;;;0.00;0.00;;;20.20;99.90;;;;;;4994090;28;20246;-81
2022/09/25 12:54:21;;;;;;;0.00;0.00;;;20.30;99.90;;;;;;4993664;28;20829;-80
2022/09/25 12:56:55;;;;;;;0.00;0.00;;;20.40;99.90;;;;;;4993561;28;20208;-80
2022/09/25 12:59:32;;;;;;;0.00;0.00;;;20.90;99.90;;;;;;4982217;28;20196;-79
2022/09/25 13:02:06;;;;;;;0.00;0.00;;;21.20;99.90;;;;;;4987787;28;20521;-79
2022/09/25 13:04:48;;;;;;;0.00;0.00;;;21.40;99.90;;;;;;4990526;28;20592;-79
2022/09/25 13:07:22;;;;;;;0.00;0.00;;;21.40;99.90;;;;;;4991374;28;20665;-80
2022/09/25 13:09:50;;;;;;;0.00;0.00;;;21.50;99.90;;;;;;4993633;28;20228;-77
2022/09/25 13:12:32;;;;;;;0.00;0.00;;;21.70;99.90;;;;;;4993113;28;20208;-79
2022/09/25 13:15:05;;;;;;;0.00;0.00;;;21.80;99.90;;;;;;5001454;28;20634;-77
2022/09/25 13:17:34;;;;;;;0.00;0.00;;;21.80;99.90;;;;;;5008015;28;20221;-77
2022/09/25 13:20:41;;;;;;;0.00;0.00;;;21.00;99.90;;;;;;4993971;28;20223;-77
2022/09/25 13:23:13;;;;;;;0.00;0.00;;;20.80;99.90;;;;;;4993916;28;20200;-77
2022/09/25 13:25:45;;;;;;;0.00;0.00;;;21.00;99.90;;;;;;4992737;28;20228;-78
2022/09/25 13:28:18;;;;;;;0.00;0.00;;;21.10;99.90;;;;;;4985929;28;20203;-77
2022/09/25 13:31:08;;;;;;;0.00;0.00;;;21.10;99.90;;;;;;4992696;28;20262;-77